Time;durP1;ratioP1;P1;durP2;ratioP2;P2;SDS_P1;SDS_P2;PMS_P1;PMS_P2;Temp;Humidity;BMP_temperature;BMP_pressure;BME280_temperature;BME280_humidity;BME280_pressure;Samples;Min_cycle;Max_cycle;Signal;HPM_P1;HPM_P2
2020/12/10 00:01:49;;;;;;;27.23;24.53;;;2.70;99.90;;;;;;5086189;28;20644;-93
2020/12/10 00:04:18;;;;;;;27.60;24.80;;;2.70;99.90;;;;;;5088590;28;20779;-91
2020/12/10 00:06:47;;;;;;;30.83;26.00;;;2.60;99.90;;;;;;5093378;28;20667;-92
2020/12/10 00:09:14;;;;;;;29.40;26.27;;;2.50;99.90;;;;;;5095090;28;21014;-92
2020/12/10 00:11:40;;;;;;;28.57;25.47;;;2.60;99.90;;;;;;5092891;28;20645;-93
2020/12/10 00:14:07;;;;;;;27.73;24.83;;;2.50;99.90;;;;;;5097105;28;20629;-92
2020/12/10 00:16:33;;;;;;;28.60;25.80;;;2.50;99.90;;;;;;5089888;28;20935;-92
2020/12/10 00:19:00;;;;;;;28.73;25.93;;;2.50;99.90;;;;;;5090042;28;20646;-93
2020/12/10 00:21:29;;;;;;;28.63;25.73;;;2.50;99.90;;;;;;5093943;28;20688;-93
2020/12/10 00:23:56;;;;;;;27.73;25.03;;;2.40;99.90;;;;;;5093200;28;21262;-92
2020/12/10 00:26:22;;;;;;;30.23;27.30;;;2.40;99.90;;;;;;5090421;28;20664;-92
2020/12/10 00:28:49;;;;;;;30.50;27.30;;;2.50;99.90;;;;;;5094327;28;20639;-92
2020/12/10 00:31:17;;;;;;;31.73;28.43;;;2.50;99.90;;;;;;5102012;28;20644;-94
2020/12/10 00:33:44;;;;;;;31.90;28.57;;;2.50;99.90;;;;;;5093485;28;20727;-93
2020/12/10 00:36:13;;;;;;;32.67;29.27;;;2.50;99.90;;;;;;5100772;28;20719;-95
2020/12/10 00:38:43;;;;;;;31.13;27.83;;;2.40;99.90;;;;;;5098096;28;20640;-93
2020/12/10 00:41:12;;;;;;;30.10;26.90;;;2.40;99.90;;;;;;5102895;28;20759;-94
2020/12/10 00:43:39;;;;;;;30.30;27.17;;;2.40;99.90;;;;;;5102851;28;20624;-93
2020/12/10 00:46:06;;;;;;;29.33;26.20;;;2.40;99.90;;;;;;5093812;28;20661;-94
2020/12/10 00:48:33;;;;;;;33.27;29.80;;;2.40;99.90;;;;;;5106592;28;20667;-93
2020/12/10 00:51:00;;;;;;;27.43;24.73;;;2.40;99.90;;;;;;5098514;28;20755;-93
2020/12/10 00:53:26;;;;;;;28.43;25.53;;;2.40;99.90;;;;;;5094678;28;20714;-92
2020/12/10 00:55:57;;;;;;;30.07;26.93;;;2.40;99.90;;;;;;5095941;28;21001;-91
2020/12/10 00:58:23;;;;;;;29.80;26.60;;;2.40;99.90;;;;;;5083745;28;20633;-92
2020/12/10 01:00:50;;;;;;;30.17;27.17;;;2.40;99.90;;;;;;5098151;28;20660;-93
2020/12/10 01:03:19;;;;;;;31.63;27.67;;;2.30;99.90;;;;;;5094966;28;20675;-94
2020/12/10 01:05:45;;;;;;;29.03;26.03;;;2.40;99.90;;;;;;5104443;28;20631;-92
2020/12/10 01:08:12;;;;;;;31.57;28.03;;;2.50;99.90;;;;;;5098047;28;20635;-92
2020/12/10 01:10:44;;;;;;;30.03;26.83;;;2.50;99.90;;;;;;5102737;28;21095;-94
2020/12/10 01:13:11;;;;;;;31.33;26.47;;;2.40;99.90;;;;;;5103830;28;20665;-93
2020/12/10 01:15:37;;;;;;;31.60;28.30;;;2.40;99.90;;;;;;5098453;28;20624;-89
2020/12/10 01:18:04;;;;;;;29.30;26.20;;;2.40;99.90;;;;;;5090072;28;20724;-91
2020/12/10 01:20:30;;;;;;;28.13;25.43;;;2.40;99.90;;;;;;5091015;28;20656;-91
2020/12/10 01:22:56;;;;;;;30.47;27.27;;;2.50;99.90;;;;;;5086140;28;20609;-91
2020/12/10 01:25:23;;;;;;;27.73;24.93;;;2.40;99.90;;;;;;5099807;28;20632;-89
2020/12/10 01:27:49;;;;;;;29.27;26.37;;;2.50;99.90;;;;;;5107079;28;20687;-90
2020/12/10 01:30:17;;;;;;;27.13;24.43;;;2.50;99.90;;;;;;5084432;28;20660;-90
2020/12/10 01:32:43;;;;;;;30.00;26.90;;;2.50;99.90;;;;;;5091353;28;20643;-91
2020/12/10 01:35:10;;;;;;;28.37;25.50;;;2.40;99.90;;;;;;5088237;28;20969;-91
2020/12/10 01:37:36;;;;;;;30.20;26.10;;;2.30;99.90;;;;;;5086508;28;20635;-91
2020/12/10 01:40:04;;;;;;;27.87;25.00;;;2.30;99.90;;;;;;5085001;28;20660;-91
2020/12/10 01:42:36;;;;;;;26.97;24.10;;;2.20;99.90;;;;;;5082732;28;20644;-92
2020/12/10 01:45:02;;;;;;;28.27;25.30;;;2.30;99.90;;;;;;5084190;28;20595;-91
2020/12/10 01:47:34;;;;;;;28.47;25.47;;;2.30;99.90;;;;;;5094235;28;20660;-91
2020/12/10 01:50:01;;;;;;;27.37;24.47;;;2.40;99.90;;;;;;5089054;28;20658;-93
2020/12/10 01:52:29;;;;;;;27.20;24.30;;;2.30;99.90;;;;;;5088785;28;20605;-91
2020/12/10 01:54:55;;;;;;;28.73;25.73;;;2.20;99.90;;;;;;5086198;28;20651;-90
2020/12/10 01:57:25;;;;;;;27.17;24.27;;;2.30;99.90;;;;;;5084943;28;20729;-89
2020/12/10 01:59:52;;;;;;;27.47;24.60;;;2.20;99.90;;;;;;5085628;28;20648;-92
2020/12/10 02:02:19;;;;;;;27.30;24.37;;;2.30;99.90;;;;;;5090186;28;20643;-91
2020/12/10 02:04:46;;;;;;;27.10;24.13;;;2.30;99.90;;;;;;5088838;28;20636;-90
2020/12/10 02:07:12;;;;;;;26.70;23.90;;;2.30;99.90;;;;;;5091951;28;20662;-90
2020/12/10 02:09:39;;;;;;;29.53;25.77;;;2.30;99.90;;;;;;5081325;28;20636;-90
2020/12/10 02:12:07;;;;;;;27.67;24.67;;;2.40;99.90;;;;;;5087761;28;20648;-90
2020/12/10 02:14:35;;;;;;;26.30;23.60;;;2.30;99.90;;;;;;5084627;28;20643;-91
2020/12/10 02:17:03;;;;;;;25.07;22.57;;;2.30;99.90;;;;;;5091934;28;20640;-91
2020/12/10 02:19:29;;;;;;;24.20;21.70;;;2.30;99.90;;;;;;5088681;28;20620;-91
2020/12/10 02:21:58;;;;;;;25.20;22.57;;;2.30;99.90;;;;;;5089641;28;20645;-90
2020/12/10 02:24:25;;;;;;;26.80;24.17;;;2.30;99.90;;;;;;5089394;28;20616;-90
2020/12/10 02:26:52;;;;;;;27.13;24.20;;;2.30;99.90;;;;;;5094093;28;20843;-91
2020/12/10 02:29:19;;;;;;;25.47;23.00;;;2.40;99.90;;;;;;5087555;28;20652;-91
2020/12/10 02:31:46;;;;;;;26.10;23.50;;;2.30;99.90;;;;;;5087935;28;20727;-91
2020/12/10 02:34:13;;;;;;;27.10;24.30;;;2.40;99.90;;;;;;5089697;28;20637;-91
2020/12/10 02:36:43;;;;;;;28.90;25.80;;;2.40;99.90;;;;;;5094963;28;20620;-91
2020/12/10 02:39:10;;;;;;;27.63;24.70;;;2.40;99.90;;;;;;5091557;28;20644;-92
2020/12/10 02:41:41;;;;;;;27.80;24.70;;;2.40;99.90;;;;;;5089863;28;20646;-92
2020/12/10 02:44:08;;;;;;;26.70;23.90;;;2.30;99.90;;;;;;5090391;28;20621;-93
2020/12/10 02:46:35;;;;;;;27.27;24.47;;;2.30;99.90;;;;;;5087335;28;20664;-92
2020/12/10 02:49:02;;;;;;;27.87;24.97;;;2.30;99.90;;;;;;5082093;28;20624;-91
2020/12/10 02:51:30;;;;;;;27.03;24.30;;;2.40;99.90;;;;;;5081970;28;20692;-92
2020/12/10 02:54:00;;;;;;;27.77;24.90;;;2.20;99.90;;;;;;5090164;28;20625;-92
2020/12/10 02:56:26;;;;;;;28.60;25.67;;;2.10;99.90;;;;;;5090767;28;20626;-91
2020/12/10 02:58:55;;;;;;;29.37;26.27;;;2.20;99.90;;;;;;5089163;28;20631;-91
2020/12/10 03:01:22;;;;;;;27.93;25.03;;;2.20;99.90;;;;;;5089255;28;20772;-91
2020/12/10 03:03:50;;;;;;;28.40;25.40;;;2.20;99.90;;;;;;5085001;28;21195;-91
2020/12/10 03:06:16;;;;;;;28.00;25.10;;;2.20;99.90;;;;;;5084382;28;20689;-92
2020/12/10 03:08:43;;;;;;;27.77;24.37;;;2.20;99.90;;;;;;5087011;28;20628;-91
2020/12/10 03:11:09;;;;;;;25.93;23.43;;;2.20;99.90;;;;;;5091314;28;20633;-90
2020/12/10 03:13:35;;;;;;;26.30;23.50;;;2.30;99.90;;;;;;5090844;28;20621;-89
2020/12/10 03:16:03;;;;;;;27.87;24.87;;;2.20;99.90;;;;;;5090017;28;20617;-91
2020/12/10 03:18:30;;;;;;;27.27;24.47;;;2.20;99.90;;;;;;5081973;28;20628;-91
2020/12/10 03:20:56;;;;;;;27.37;24.40;;;2.20;99.90;;;;;;5090158;28;21144;-90
2020/12/10 03:23:23;;;;;;;28.30;24.80;;;2.20;99.90;;;;;;5089674;28;20632;-91
2020/12/10 03:25:49;;;;;;;28.60;25.17;;;2.20;99.90;;;;;;5085987;28;20641;-91
2020/12/10 03:28:16;;;;;;;28.80;25.17;;;2.30;99.90;;;;;;5085058;28;21098;-91
2020/12/10 03:30:42;;;;;;;26.23;23.53;;;2.20;99.90;;;;;;5092090;28;21285;-90
2020/12/10 03:33:10;;;;;;;28.43;25.33;;;2.20;99.90;;;;;;5089257;28;20655;-91
2020/12/10 03:35:37;;;;;;;27.23;24.37;;;2.10;99.90;;;;;;5094540;28;20632;-92
2020/12/10 03:38:03;;;;;;;29.27;25.20;;;2.10;99.90;;;;;;5090802;28;20613;-91
2020/12/10 03:40:29;;;;;;;28.23;25.20;;;2.10;99.90;;;;;;5092110;28;20647;-90
2020/12/10 03:42:56;;;;;;;27.90;25.00;;;2.10;99.90;;;;;;5089341;28;20605;-90
2020/12/10 03:45:22;;;;;;;29.43;25.70;;;2.20;99.90;;;;;;5093836;28;20620;-93
2020/12/10 03:47:49;;;;;;;29.07;26.10;;;2.20;99.90;;;;;;5095111;27;20687;-92
2020/12/10 03:50:16;;;;;;;27.90;24.90;;;2.20;99.90;;;;;;5096197;28;20652;-90
2020/12/10 03:52:42;;;;;;;28.17;25.27;;;2.20;99.90;;;;;;5106968;28;20636;-92
2020/12/10 03:55:09;;;;;;;26.97;24.10;;;2.30;99.90;;;;;;5087588;28;21170;-90
2020/12/10 03:57:35;;;;;;;27.13;24.30;;;2.20;99.90;;;;;;5096802;28;20659;-91
2020/12/10 04:00:01;;;;;;;28.07;25.07;;;2.20;99.90;;;;;;5098294;28;20675;-93
2020/12/10 04:02:28;;;;;;;30.53;27.17;;;2.10;99.90;;;;;;5092488;28;20623;-92
2020/12/10 04:04:54;;;;;;;27.07;24.20;;;2.10;99.90;;;;;;5095353;28;20644;-91
2020/12/10 04:07:22;;;;;;;26.80;24.00;;;2.10;99.90;;;;;;5092491;28;20657;-92
2020/12/10 04:09:48;;;;;;;30.10;26.90;;;2.10;99.90;;;;;;5089198;28;20674;-93
2020/12/10 04:12:15;;;;;;;29.37;26.03;;;2.10;99.90;;;;;;5086096;28;20634;-92
2020/12/10 04:14:43;;;;;;;27.90;24.93;;;2.10;99.90;;;;;;5089302;28;20643;-91
2020/12/10 04:17:09;;;;;;;28.63;25.73;;;2.10;99.90;;;;;;5084515;28;20616;-93
2020/12/10 04:19:35;;;;;;;26.30;23.60;;;2.20;99.90;;;;;;5084000;28;20652;-92
2020/12/10 04:22:02;;;;;;;28.87;25.30;;;2.10;99.90;;;;;;5084632;28;20718;-92
2020/12/10 04:24:29;;;;;;;28.80;25.10;;;2.20;99.90;;;;;;5088968;28;20639;-93
2020/12/10 04:26:57;;;;;;;28.63;25.70;;;2.20;99.90;;;;;;5095365;28;21072;-92
2020/12/10 04:29:24;;;;;;;26.77;23.97;;;2.20;99.90;;;;;;5087267;28;20637;-92
2020/12/10 04:31:50;;;;;;;28.07;25.10;;;2.20;99.90;;;;;;5082872;28;20636;-91
2020/12/10 04:34:17;;;;;;;28.67;25.03;;;2.20;99.90;;;;;;5099517;28;20633;-92
2020/12/10 04:36:47;;;;;;;30.10;26.77;;;2.20;99.90;;;;;;5083816;28;20616;-92
2020/12/10 04:39:13;;;;;;;27.27;24.40;;;2.30;99.90;;;;;;5069573;28;20642;-92
2020/12/10 04:41:42;;;;;;;28.67;25.57;;;2.20;99.90;;;;;;5091064;28;20636;-92
2020/12/10 04:44:08;;;;;;;29.73;26.63;;;2.20;99.90;;;;;;5087588;28;20629;-91
2020/12/10 04:46:38;;;;;;;29.10;26.00;;;2.20;99.90;;;;;;5084257;28;20672;-91
2020/12/10 04:49:06;;;;;;;27.03;24.13;;;2.20;99.90;;;;;;5108098;28;20638;-91
2020/12/10 04:51:34;;;;;;;29.17;25.90;;;2.20;99.90;;;;;;5107801;28;20640;-90
2020/12/10 04:54:01;;;;;;;27.63;24.63;;;2.30;99.90;;;;;;5086418;28;20642;-92
2020/12/10 04:56:28;;;;;;;29.43;24.30;;;2.20;99.90;;;;;;5085203;28;20633;-91
2020/12/10 04:58:55;;;;;;;27.10;24.17;;;2.20;99.90;;;;;;5099505;28;20612;-90
2020/12/10 05:01:22;;;;;;;28.97;25.47;;;2.20;99.90;;;;;;5085153;28;20654;-90
2020/12/10 05:03:49;;;;;;;28.57;25.50;;;2.20;99.90;;;;;;5098202;28;20628;-92
2020/12/10 05:06:18;;;;;;;25.77;23.00;;;2.20;99.90;;;;;;5091669;28;20625;-91
2020/12/10 05:08:45;;;;;;;27.90;23.77;;;2.20;99.90;;;;;;5091610;28;20636;-91
2020/12/10 05:11:12;;;;;;;25.83;23.10;;;2.20;99.90;;;;;;5089832;28;20644;-92
2020/12/10 05:13:52;;;;;;;28.77;24.03;;;2.30;99.90;;;;;;5095145;28;20632;-91
2020/12/10 05:16:29;;;;;;;26.77;23.97;;;2.20;99.90;;;;;;5094977;28;21139;-94
2020/12/10 05:19:20;;;;;;;29.37;25.80;;;2.20;99.90;;;;;;5116535;28;20698;-95
2020/12/10 05:22:10;;;;;;;25.20;22.63;;;2.20;99.90;;;;;;5104486;28;20617;-96
2020/12/10 05:25:26;;;;;;;29.10;25.53;;;2.20;99.90;;;;;;5114314;28;20672;-96
2020/12/10 05:28:00;;;;;;;28.67;23.60;;;2.30;99.90;;;;;;5098361;28;20667;-94
2020/12/10 05:31:07;;;;;;;26.27;23.40;;;2.30;99.90;;;;;;5113257;28;20740;-96
2020/12/10 05:33:58;;;;;;;25.67;23.17;;;2.30;99.90;;;;;;5110064;28;20651;-95
2020/12/10 05:36:28;;;;;;;29.00;24.70;;;2.30;99.90;;;;;;5114098;28;20652;-94
2020/12/10 05:38:58;;;;;;;24.93;22.00;;;2.20;99.90;;;;;;5103581;28;20644;-94
2020/12/10 05:41:28;;;;;;;26.80;23.90;;;2.30;99.90;;;;;;5095067;28;20629;-93
2020/12/10 05:44:13;;;;;;;26.60;22.97;;;2.30;99.90;;;;;;5085216;28;21198;-93
2020/12/10 05:46:41;;;;;;;28.33;23.93;;;2.40;99.90;;;;;;5085252;28;20656;-92
2020/12/10 05:49:11;;;;;;;24.50;21.90;;;2.20;99.90;;;;;;5087883;28;20636;-93
2020/12/10 05:51:43;;;;;;;26.80;23.00;;;2.10;99.90;;;;;;5084003;28;20657;-89
2020/12/10 05:54:33;;;;;;;25.80;23.03;;;2.20;99.90;;;;;;5093491;28;20657;-95
2020/12/10 05:57:04;;;;;;;22.30;20.00;;;2.20;99.90;;;;;;5106104;28;20615;-93
2020/12/10 05:59:41;;;;;;;26.03;22.20;;;2.20;99.90;;;;;;5108140;28;20684;-93
2020/12/10 06:02:19;;;;;;;27.43;21.93;;;2.20;99.90;;;;;;5116392;28;20703;-93
2020/12/10 06:04:47;;;;;;;26.13;21.73;;;2.20;99.90;;;;;;5106654;28;20764;-93
2020/12/10 06:07:20;;;;;;;25.10;22.60;;;2.10;99.90;;;;;;5105774;28;20665;-92
2020/12/10 06:09:52;;;;;;;30.00;23.90;;;2.30;99.90;;;;;;5110857;28;20677;-93
2020/12/10 06:12:25;;;;;;;26.93;23.30;;;2.30;99.90;;;;;;5108239;28;20725;-93
2020/12/10 06:15:09;;;;;;;28.37;23.90;;;2.20;99.90;;;;;;5104283;28;21083;-93
2020/12/10 06:17:55;;;;;;;28.10;23.50;;;2.20;99.90;;;;;;5101445;28;20625;-91
2020/12/10 06:20:35;;;;;;;26.40;23.27;;;2.10;99.90;;;;;;5105689;28;20628;-92
2020/12/10 06:26:37;;;;;;;28.27;22.27;;;2.10;99.90;;;;;;5108902;28;20625;-93
2020/12/10 06:29:27;;;;;;;26.77;23.90;;;2.10;99.90;;;;;;5084799;28;20629;-89
2020/12/10 06:32:04;;;;;;;28.10;24.00;;;2.00;99.90;;;;;;5083349;28;20629;-90
2020/12/10 06:34:36;;;;;;;28.33;24.27;;;2.00;99.90;;;;;;5082422;28;20660;-89
2020/12/10 06:37:22;;;;;;;25.10;21.57;;;2.10;99.90;;;;;;5089054;28;20675;-87
2020/12/10 06:39:53;;;;;;;28.63;23.10;;;2.10;99.90;;;;;;5081100;28;20631;-89
2020/12/10 06:42:19;;;;;;;25.73;21.60;;;2.10;99.90;;;;;;5086573;28;21127;-89
2020/12/10 06:44:46;;;;;;;26.20;22.90;;;2.10;99.90;;;;;;5083376;28;21218;-88
2020/12/10 06:47:13;;;;;;;29.27;22.80;;;2.10;99.90;;;;;;5087701;28;20668;-88
2020/12/10 06:49:40;;;;;;;26.50;23.23;;;2.10;99.90;;;;;;5086010;28;20655;-88
2020/12/10 06:52:08;;;;;;;30.00;23.60;;;2.10;99.90;;;;;;5093889;28;20680;-88
2020/12/10 06:54:36;;;;;;;24.17;21.53;;;2.20;99.90;;;;;;5081483;28;20657;-88
2020/12/10 06:57:05;;;;;;;29.70;23.10;;;2.10;99.90;;;;;;5086957;28;20711;-87
2020/12/10 06:59:38;;;;;;;25.80;22.80;;;2.20;99.90;;;;;;5079773;28;20609;-88
2020/12/10 07:02:12;;;;;;;28.43;23.50;;;2.10;99.90;;;;;;5085987;28;20629;-88
2020/12/10 07:04:47;;;;;;;28.63;22.83;;;2.10;99.90;;;;;;5085011;28;21058;-87
2020/12/10 07:07:16;;;;;;;28.60;23.63;;;2.10;99.90;;;;;;5084742;28;21031;-88
2020/12/10 07:09:51;;;;;;;25.63;20.70;;;2.10;99.90;;;;;;5090521;28;20659;-88
2020/12/10 07:12:20;;;;;;;25.17;20.07;;;2.20;99.90;;;;;;5085502;28;20643;-88
2020/12/10 07:14:47;;;;;;;23.57;20.07;;;2.10;99.90;;;;;;5093609;28;20684;-88
2020/12/10 07:17:14;;;;;;;21.83;19.40;;;2.10;99.90;;;;;;5088016;28;20613;-87
2020/12/10 07:19:40;;;;;;;20.20;18.10;;;2.20;99.90;;;;;;5089729;28;20632;-88
2020/12/10 07:22:06;;;;;;;21.27;16.30;;;2.30;99.90;;;;;;5085962;28;20624;-88
2020/12/10 07:24:33;;;;;;;18.53;16.47;;;2.20;99.90;;;;;;5088851;28;20652;-87
2020/12/10 07:27:00;;;;;;;20.43;18.07;;;2.30;99.90;;;;;;5089702;28;20677;-88
2020/12/10 07:29:27;;;;;;;19.13;16.93;;;2.30;99.90;;;;;;5081781;28;20608;-87
2020/12/10 07:31:53;;;;;;;18.30;16.40;;;2.30;99.90;;;;;;5089066;28;20625;-87
2020/12/10 07:34:20;;;;;;;20.63;17.93;;;2.20;99.90;;;;;;5082836;28;20813;-87
2020/12/10 07:36:48;;;;;;;19.33;17.33;;;2.30;99.90;;;;;;5078020;28;21172;-87
2020/12/10 07:39:25;;;;;;;20.40;17.57;;;2.40;99.90;;;;;;5085817;28;20617;-86
2020/12/10 07:41:52;;;;;;;20.07;17.93;;;2.20;99.90;;;;;;5086815;28;20621;-87
2020/12/10 07:44:25;;;;;;;17.80;15.63;;;2.40;99.90;;;;;;5080617;28;20653;-88
2020/12/10 07:46:52;;;;;;;19.60;17.60;;;2.50;99.90;;;;;;5082344;28;20645;-89
2020/12/10 07:49:30;;;;;;;19.17;17.17;;;2.40;99.90;;;;;;5087923;28;20645;-89
2020/12/10 07:52:06;;;;;;;18.80;17.00;;;2.40;99.90;;;;;;5081863;28;20615;-88
2020/12/10 07:54:46;;;;;;;19.90;17.80;;;2.40;99.90;;;;;;5100935;28;20643;-87
2020/12/10 07:57:28;;;;;;;20.10;18.10;;;2.30;99.90;;;;;;5098486;28;20623;-87
2020/12/10 07:59:58;;;;;;;19.87;17.87;;;2.40;99.90;;;;;;5091902;28;20621;-88
2020/12/10 08:02:42;;;;;;;19.83;18.00;;;2.40;99.90;;;;;;5098138;28;20614;-89
2020/12/10 08:05:13;;;;;;;19.63;17.73;;;2.40;99.90;;;;;;5091437;28;21083;-88
2020/12/10 08:07:45;;;;;;;20.63;18.20;;;2.30;99.90;;;;;;5091378;28;20703;-87
2020/12/10 08:10:20;;;;;;;19.50;17.40;;;2.40;99.90;;;;;;5097973;28;20717;-88
2020/12/10 08:13:15;;;;;;;22.17;19.80;;;2.40;99.90;;;;;;5104093;28;20621;-88
2020/12/10 08:15:46;;;;;;;21.70;19.40;;;2.60;99.90;;;;;;5101879;28;20723;-89
2020/12/10 08:18:14;;;;;;;21.40;19.17;;;2.60;99.90;;;;;;5093871;28;20637;-88
2020/12/10 08:20:43;;;;;;;20.23;18.07;;;2.60;99.90;;;;;;5092015;28;20708;-88
2020/12/10 08:23:10;;;;;;;18.77;16.97;;;2.50;99.90;;;;;;5096953;28;20696;-87
2020/12/10 08:25:36;;;;;;;21.97;19.47;;;2.50;99.90;;;;;;5088164;28;21237;-87
2020/12/10 08:28:05;;;;;;;20.53;18.33;;;2.50;99.90;;;;;;5085108;28;20652;-89
2020/12/10 08:30:31;;;;;;;21.17;18.97;;;2.50;99.90;;;;;;5088256;28;20615;-87
2020/12/10 08:32:59;;;;;;;21.50;18.80;;;2.40;99.90;;;;;;5087605;28;21230;-90
2020/12/10 08:35:42;;;;;;;22.77;18.53;;;2.50;99.90;;;;;;5080124;28;20719;-87
2020/12/10 08:38:09;;;;;;;19.90;17.80;;;2.50;99.90;;;;;;5083937;28;20644;-90
2020/12/10 08:40:37;;;;;;;19.73;17.83;;;2.60;99.90;;;;;;5085015;28;20637;-88
2020/12/10 08:43:11;;;;;;;21.23;19.03;;;2.50;99.90;;;;;;5079317;28;20616;-90
2020/12/10 08:45:43;;;;;;;21.17;18.93;;;2.60;99.90;;;;;;5089317;28;20628;-89
2020/12/10 08:48:14;;;;;;;21.80;19.40;;;2.60;99.90;;;;;;5081500;28;21298;-90
2020/12/10 08:50:51;;;;;;;21.10;18.90;;;2.70;99.90;;;;;;5082088;28;20651;-91
2020/12/10 08:53:17;;;;;;;19.00;17.00;;;2.80;99.90;;;;;;5086367;28;20628;-90
2020/12/10 08:55:48;;;;;;;21.40;18.67;;;2.80;99.90;;;;;;5087716;28;20659;-90
2020/12/10 08:58:17;;;;;;;21.47;17.93;;;2.80;99.90;;;;;;5085834;28;20606;-90
2020/12/10 09:00:43;;;;;;;19.67;17.73;;;2.80;99.90;;;;;;5085202;28;20620;-90
2020/12/10 09:03:10;;;;;;;20.27;18.13;;;2.70;99.90;;;;;;5085749;28;20620;-90
2020/12/10 09:05:37;;;;;;;19.23;17.33;;;2.90;99.90;;;;;;5088950;28;20659;-89
2020/12/10 09:08:04;;;;;;;18.77;16.87;;;2.90;99.90;;;;;;5093737;28;20656;-89
2020/12/10 09:10:30;;;;;;;18.00;16.03;;;2.90;99.90;;;;;;5084525;28;20704;-94
2020/12/10 09:12:59;;;;;;;16.60;14.90;;;3.00;99.90;;;;;;5083126;28;20667;-88
2020/12/10 09:15:27;;;;;;;19.33;17.13;;;3.00;99.90;;;;;;5083714;28;20641;-88
2020/12/10 09:17:53;;;;;;;16.80;15.10;;;3.00;99.90;;;;;;5082517;28;20700;-89
2020/12/10 09:20:20;;;;;;;16.87;15.07;;;3.10;99.90;;;;;;5085106;28;20668;-87
2020/12/10 09:22:47;;;;;;;16.43;14.57;;;3.20;99.90;;;;;;5088860;28;20612;-90
2020/12/10 09:25:14;;;;;;;16.67;14.97;;;3.30;99.90;;;;;;5098560;28;20997;-92
2020/12/10 09:27:44;;;;;;;16.40;14.80;;;3.40;99.90;;;;;;5091519;28;20775;-92
2020/12/10 09:30:12;;;;;;;16.33;14.73;;;3.40;99.90;;;;;;5092315;28;20671;-91
2020/12/10 09:32:40;;;;;;;16.43;14.87;;;3.40;99.90;;;;;;5089881;28;20651;-90
2020/12/10 09:35:08;;;;;;;16.03;14.33;;;3.50;99.90;;;;;;5079067;28;21079;-90
2020/12/10 09:37:36;;;;;;;15.70;13.77;;;3.60;99.90;;;;;;5091963;28;20755;-91
2020/12/10 09:40:04;;;;;;;14.07;12.50;;;3.50;99.90;;;;;;5090364;28;20660;-91
2020/12/10 09:42:34;;;;;;;15.03;13.27;;;3.60;99.90;;;;;;5089318;28;20692;-89
2020/12/10 09:45:03;;;;;;;13.97;12.57;;;3.70;99.90;;;;;;5085694;28;20625;-92
2020/12/10 09:47:29;;;;;;;15.37;13.77;;;3.70;99.90;;;;;;5095081;28;20649;-92
2020/12/10 09:49:56;;;;;;;16.27;14.50;;;3.60;99.90;;;;;;5094261;28;20648;-92
2020/12/10 09:52:24;;;;;;;14.23;12.90;;;3.60;99.90;;;;;;5093221;28;20617;-93
2020/12/10 09:55:09;;;;;;;15.27;13.67;;;3.50;99.90;;;;;;5093013;28;20739;-93
2020/12/10 09:57:37;;;;;;;14.27;12.77;;;3.60;99.90;;;;;;5093554;28;20621;-92
2020/12/10 10:00:06;;;;;;;16.07;14.47;;;3.60;99.90;;;;;;5084692;28;21230;-92
2020/12/10 10:02:34;;;;;;;17.13;15.43;;;3.60;99.90;;;;;;5088304;28;20634;-95
2020/12/10 10:05:01;;;;;;;15.90;14.27;;;3.60;99.90;;;;;;5086900;28;20715;-93
2020/12/10 10:07:31;;;;;;;17.87;15.50;;;3.50;99.90;;;;;;5100892;28;21038;-94
2020/12/10 10:09:58;;;;;;;17.00;15.30;;;3.70;99.90;;;;;;5100031;28;20645;-95
2020/12/10 10:12:30;;;;;;;16.30;14.60;;;3.60;99.90;;;;;;5091880;28;20723;-94
2020/12/10 10:15:13;;;;;;;15.77;14.23;;;3.40;99.90;;;;;;5092247;28;20668;-95
2020/12/10 10:17:57;;;;;;;17.00;15.40;;;3.40;99.90;;;;;;5096364;28;20940;-94
2020/12/10 10:23:05;;;;;;;16.07;14.37;;;3.40;99.90;;;;;;5109055;27;20640;-95
2020/12/10 10:25:32;;;;;;;16.87;15.33;;;3.40;99.90;;;;;;5099297;28;20663;-95
2020/12/10 10:30:54;;;;;;;21.03;16.93;;;3.50;99.90;;;;;;5106271;28;20651;-93
2020/12/10 10:33:23;;;;;;;17.53;15.60;;;3.50;99.90;;;;;;5093580;28;20614;-94
2020/12/10 10:35:53;;;;;;;18.53;16.63;;;3.60;99.90;;;;;;5096365;28;20625;-92
2020/12/10 10:38:20;;;;;;;21.83;16.93;;;3.70;99.90;;;;;;5088331;28;20617;-92
2020/12/10 10:40:47;;;;;;;18.17;15.73;;;3.60;99.90;;;;;;5089670;28;21250;-90
2020/12/10 10:43:20;;;;;;;17.50;15.70;;;3.60;99.90;;;;;;5089521;28;20731;-93
2020/12/10 10:45:47;;;;;;;22.30;20.07;;;3.60;99.90;;;;;;5082417;28;20626;-93
2020/12/10 10:48:14;;;;;;;27.40;21.77;;;3.70;99.90;;;;;;5089300;28;20668;-92
2020/12/10 10:50:40;;;;;;;26.93;22.53;;;3.70;99.90;;;;;;5085525;28;20661;-94
2020/12/10 10:53:07;;;;;;;26.17;22.40;;;3.70;99.90;;;;;;5084844;28;20629;-94
2020/12/10 10:55:35;;;;;;;26.53;21.23;;;3.80;99.90;;;;;;5091040;28;20641;-95
2020/12/10 10:58:02;;;;;;;24.80;21.13;;;3.70;99.90;;;;;;5089802;28;20673;-93
2020/12/10 11:00:28;;;;;;;25.80;20.87;;;3.60;99.90;;;;;;5089814;28;20755;-93
2020/12/10 11:02:59;;;;;;;27.90;22.30;;;3.60;99.90;;;;;;5090051;28;20625;-94
2020/12/10 11:05:29;;;;;;;29.60;22.47;;;3.60;99.90;;;;;;5082758;28;20625;-94
2020/12/10 11:07:58;;;;;;;28.80;22.90;;;3.70;99.90;;;;;;5088308;28;20653;-94
2020/12/10 11:10:25;;;;;;;24.60;21.90;;;3.60;99.90;;;;;;5093795;28;20644;-93
2020/12/10 11:12:53;;;;;;;20.93;18.60;;;3.60;99.90;;;;;;5087465;28;20814;-95
2020/12/10 11:15:19;;;;;;;21.53;18.50;;;3.50;99.90;;;;;;5099995;28;20667;-94
2020/12/10 11:17:46;;;;;;;18.80;15.93;;;3.50;99.90;;;;;;5101744;28;20662;-95
2020/12/10 11:20:14;;;;;;;17.60;15.77;;;3.60;99.90;;;;;;5082151;28;20641;-95
2020/12/10 11:22:40;;;;;;;17.27;15.47;;;3.60;99.90;;;;;;5090563;28;21368;-91
2020/12/10 11:25:07;;;;;;;18.57;16.77;;;3.60;99.90;;;;;;5092376;28;20732;-91
2020/12/10 11:27:34;;;;;;;17.57;15.77;;;3.80;99.90;;;;;;5090676;28;20656;-91
2020/12/10 11:30:04;;;;;;;19.77;17.77;;;3.70;99.90;;;;;;5090078;28;20752;-92
2020/12/10 11:32:30;;;;;;;18.60;16.53;;;3.60;99.90;;;;;;5089050;28;20620;-91
2020/12/10 11:34:57;;;;;;;17.90;16.00;;;3.80;99.90;;;;;;5084317;28;20629;-90
2020/12/10 11:37:24;;;;;;;17.70;15.97;;;3.80;99.90;;;;;;5102061;28;20641;-90
2020/12/10 11:39:54;;;;;;;19.57;16.77;;;3.80;99.90;;;;;;5100143;28;20666;-91
2020/12/10 11:42:20;;;;;;;19.47;17.10;;;3.70;99.90;;;;;;5088073;28;20637;-90
2020/12/10 11:44:48;;;;;;;18.43;15.43;;;3.70;99.90;;;;;;5086434;28;20644;-91
2020/12/10 11:47:15;;;;;;;16.40;13.83;;;3.70;99.90;;;;;;5085101;28;20690;-92
2020/12/10 11:49:41;;;;;;;15.60;14.10;;;3.70;99.90;;;;;;5086300;28;20643;-91
2020/12/10 11:52:08;;;;;;;15.53;13.50;;;3.80;99.90;;;;;;5088783;28;20635;-91
2020/12/10 11:54:37;;;;;;;15.20;13.60;;;3.80;99.90;;;;;;5088060;28;20612;-93
2020/12/10 11:57:04;;;;;;;17.00;14.10;;;3.80;99.90;;;;;;5083909;28;20665;-91
2020/12/10 11:59:30;;;;;;;16.73;15.07;;;3.80;99.90;;;;;;5083326;28;21219;-92
2020/12/10 12:01:57;;;;;;;16.73;14.97;;;3.80;99.90;;;;;;5085528;28;20628;-91
2020/12/10 12:04:23;;;;;;;17.80;16.00;;;3.90;99.90;;;;;;5089537;28;20671;-92
2020/12/10 12:06:49;;;;;;;16.60;14.93;;;3.80;99.90;;;;;;5079689;28;20598;-92
2020/12/10 12:09:15;;;;;;;19.90;14.97;;;3.90;99.90;;;;;;5086605;28;20677;-91
2020/12/10 12:11:43;;;;;;;17.60;15.10;;;3.90;99.90;;;;;;5086913;28;20751;-90
2020/12/10 12:14:11;;;;;;;16.83;15.07;;;3.90;99.90;;;;;;5091724;28;20631;-91
2020/12/10 12:16:38;;;;;;;16.87;15.10;;;3.90;99.90;;;;;;5087917;28;20951;-92
2020/12/10 12:19:04;;;;;;;14.90;13.40;;;3.90;99.90;;;;;;5089421;28;20660;-92
2020/12/10 12:21:33;;;;;;;15.93;14.33;;;3.90;99.90;;;;;;5089376;28;20698;-89
2020/12/10 12:23:59;;;;;;;15.50;13.93;;;3.90;99.90;;;;;;5091735;28;20668;-90
2020/12/10 12:26:29;;;;;;;14.37;12.87;;;3.90;99.90;;;;;;5093201;28;21265;-91
2020/12/10 12:29:03;;;;;;;17.23;15.43;;;3.80;99.90;;;;;;5082223;28;20672;-92
2020/12/10 12:31:31;;;;;;;16.20;14.37;;;3.90;99.90;;;;;;5082558;28;20934;-94
2020/12/10 12:33:57;;;;;;;16.73;15.10;;;3.90;99.90;;;;;;5087351;28;21044;-92
2020/12/10 12:36:28;;;;;;;17.93;15.60;;;3.80;99.90;;;;;;5087508;28;20624;-91
2020/12/10 12:38:55;;;;;;;16.57;14.87;;;3.90;99.90;;;;;;5088040;28;20679;-92
2020/12/10 12:41:27;;;;;;;18.27;16.47;;;3.90;99.90;;;;;;5104248;28;20972;-93
2020/12/10 12:43:55;;;;;;;15.73;13.90;;;4.00;99.90;;;;;;5088564;28;20672;-92
2020/12/10 12:46:23;;;;;;;16.80;15.17;;;4.00;99.90;;;;;;5094454;28;20658;-93
2020/12/10 12:48:49;;;;;;;19.27;17.27;;;4.00;99.90;;;;;;5084673;28;20664;-90
2020/12/10 12:51:16;;;;;;;18.53;16.63;;;4.00;99.90;;;;;;5093741;28;20678;-92
2020/12/10 12:53:43;;;;;;;19.07;15.93;;;3.90;99.90;;;;;;5095431;28;20627;-92
2020/12/10 12:56:09;;;;;;;18.53;16.63;;;3.90;99.90;;;;;;5108642;28;20634;-91